Time;durP1;ratioP1;P1;durP2;ratioP2;P2;SDS_P1;SDS_P2;PMS_P1;PMS_P2;Temp;Humidity;BMP_temperature;BMP_pressure;BME280_temperature;BME280_humidity;BME280_pressure;Samples;Min_cycle;Max_cycle;Signal;HPM_P1;HPM_P2
2022/08/09 00:01:38;;;;;;;4.60;2.20;;;;;;;16.70;61.70;100205.13;8295594;28;20047;-80
2022/08/09 00:05:39;;;;;;;4.57;3.00;;;;;;;16.72;61.25;100212.97;8350415;28;20136;-80
2022/08/09 00:09:40;;;;;;;5.72;2.45;;;;;;;16.76;61.30;100214.72;8344318;28;20069;-80
2022/08/09 00:13:41;;;;;;;6.88;2.28;;;;;;;16.78;60.87;100211.69;8350182;28;20044;-80
2022/08/09 00:17:42;;;;;;;5.75;2.30;;;;;;;16.87;60.86;100215.19;8343568;28;20049;-80
2022/08/09 00:21:43;;;;;;;4.03;2.25;;;;;;;16.98;60.00;100210.19;8340724;28;20053;-79
2022/08/09 00:25:44;;;;;;;6.97;2.92;;;;;;;17.09;59.55;100209.53;8342253;28;20049;-80
2022/08/09 00:29:45;;;;;;;4.55;2.30;;;;;;;17.11;59.58;100210.03;8337405;28;20059;-80
2022/08/09 00:33:46;;;;;;;8.88;2.60;;;;;;;17.15;59.50;100205.50;8352404;28;20052;-80
2022/08/09 00:37:47;;;;;;;4.00;2.65;;;;;;;17.18;59.36;100210.31;8321528;28;20120;-80
2022/08/09 00:41:49;;;;;;;4.93;2.42;;;;;;;17.19;59.51;100211.09;8329112;28;20420;-79
2022/08/09 00:45:50;;;;;;;6.05;2.35;;;;;;;17.22;59.44;100210.47;8323719;28;20057;-80
2022/08/09 00:49:52;;;;;;;5.10;2.75;;;;;;;17.22;59.76;100216.72;8314703;28;20041;-81
2022/08/09 00:53:53;;;;;;;5.68;2.22;;;;;;;17.23;59.52;100212.06;8357510;28;21279;-79
2022/08/09 00:57:54;;;;;;;4.47;2.58;;;;;;;17.25;59.66;100216.06;8300549;28;20405;-80
2022/08/09 01:01:58;;;;;;;2.63;2.42;;;;;;;17.34;59.54;100207.06;8362535;28;20052;-79
2022/08/09 01:06:09;;;;;;;4.80;2.50;;;;;;;17.41;59.59;100212.81;8355725;28;20397;-80
2022/08/09 01:10:20;;;;;;;3.85;2.35;;;;;;;17.47;59.34;100222.41;8355590;28;20048;-80
2022/08/09 01:14:37;;;;;;;4.80;2.20;;;;;;;17.51;59.11;100217.91;8332272;28;20054;-80
2022/08/09 01:18:45;;;;;;;8.95;2.45;;;;;;;17.52;59.06;100224.97;8329932;28;20459;-80
2022/08/09 01:23:07;;;;;;;6.78;2.00;;;;;;;17.53;59.53;100221.13;8333363;28;20478;-80
2022/08/09 01:27:09;;;;;;;3.58;2.17;;;;;;;17.54;59.12;100211.81;8353193;28;20056;-79
2022/08/09 01:31:16;;;;;;;5.25;2.28;;;;;;;17.56;59.25;100214.97;8329412;28;20096;-80
2022/08/09 01:35:28;;;;;;;12.32;2.35;;;;;;;17.53;59.42;100216.47;8282361;28;20049;-80
2022/08/09 01:39:33;;;;;;;9.93;2.45;;;;;;;17.50;59.44;100210.88;8323238;28;20044;-79
2022/08/09 01:43:37;;;;;;;4.72;1.77;;;;;;;17.50;59.74;100216.31;8337862;28;20041;-80
2022/08/09 01:47:39;;;;;;;7.22;2.20;;;;;;;17.45;59.52;100213.78;8339871;28;20557;-80
2022/08/09 01:51:46;;;;;;;5.22;2.60;;;;;;;17.41;59.86;100212.81;8328509;28;20057;-80
2022/08/09 01:55:49;;;;;;;6.32;2.97;;;;;;;17.36;60.00;100221.19;8344948;28;20044;-80
2022/08/09 01:59:52;;;;;;;4.13;2.15;;;;;;;17.29;60.18;100227.94;8337258;28;20041;-80
2022/08/09 02:03:55;;;;;;;6.00;2.20;;;;;;;17.25;60.40;100221.53;8356074;28;20041;-80
2022/08/09 02:08:01;;;;;;;8.57;1.90;;;;;;;17.22;60.70;100222.19;8360584;28;20124;-80
2022/08/09 02:12:04;;;;;;;6.50;1.98;;;;;;;17.20;60.81;100221.72;8353065;28;20064;-80
2022/08/09 02:16:06;;;;;;;5.28;1.95;;;;;;;17.19;60.76;100217.38;8233760;28;20060;-80
2022/08/09 02:20:08;;;;;;;3.10;2.05;;;;;;;17.19;60.92;100222.81;8247007;28;20046;-80
2022/08/09 02:24:11;;;;;;;4.03;2.10;;;;;;;17.20;60.69;100220.91;8262268;28;20042;-80
2022/08/09 02:28:15;;;;;;;9.77;2.13;;;;;;;17.24;60.49;100214.47;8262397;28;20066;-79
2022/08/09 02:32:19;;;;;;;4.03;2.00;;;;;;;17.24;60.47;100209.00;8246175;28;20153;-79
2022/08/09 02:36:31;;;;;;;6.10;1.90;;;;;;;17.24;60.46;100198.09;8229210;28;20043;-79
2022/08/09 02:40:33;;;;;;;9.70;1.90;;;;;;;17.23;60.48;100196.50;8229875;28;20143;-79
2022/08/09 02:44:37;;;;;;;6.47;2.08;;;;;;;17.22;60.61;100205.81;8221721;28;20058;-79
2022/08/09 02:48:39;;;;;;;5.93;1.98;;;;;;;17.18;60.67;100204.84;8213031;28;20047;-79
2022/08/09 02:52:47;;;;;;;3.42;1.83;;;;;;;17.14;60.76;100195.72;8245112;28;20494;-79
2022/08/09 02:56:48;;;;;;;5.25;2.00;;;;;;;17.14;60.82;100198.44;8258124;28;20137;-79
2022/08/09 03:00:53;;;;;;;4.78;2.08;;;;;;;17.12;61.02;100206.16;8222482;28;20046;-79
2022/08/09 03:04:55;;;;;;;5.63;2.00;;;;;;;17.13;61.05;100202.28;8263411;28;20052;-79
2022/08/09 03:08:57;;;;;;;8.60;2.22;;;;;;;17.10;61.02;100208.41;8330671;28;20510;-79
2022/08/09 03:12:59;;;;;;;9.05;2.22;;;;;;;17.07;61.35;100209.06;8331629;28;20132;-79
2022/08/09 03:17:00;;;;;;;6.22;2.42;;;;;;;17.06;61.43;100218.38;8331887;28;20038;-79
2022/08/09 03:21:02;;;;;;;6.80;2.00;;;;;;;17.05;61.89;100222.22;8346153;28;20081;-79
2022/08/09 03:25:04;;;;;;;5.15;2.20;;;;;;;17.04;61.73;100220.63;8322575;28;20045;-79
2022/08/09 03:29:05;;;;;;;4.55;1.98;;;;;;;17.05;61.95;100227.69;8339242;28;20052;-79
2022/08/09 03:33:07;;;;;;;5.55;1.98;;;;;;;17.05;61.85;100227.69;8340204;28;20049;-80
2022/08/09 03:37:08;;;;;;;7.18;2.20;;;;;;;17.04;62.53;100241.66;8312277;28;20053;-79
2022/08/09 03:41:14;;;;;;;6.25;2.15;;;;;;;16.96;63.44;100240.56;8356266;28;20051;-79
2022/08/09 03:45:15;;;;;;;4.93;1.95;;;;;;;16.90;64.25;100239.13;8354853;28;20053;-80
2022/08/09 03:49:16;;;;;;;4.30;2.10;;;;;;;16.85;66.05;100233.81;8353220;28;20103;-80
2022/08/09 03:53:18;;;;;;;6.68;2.10;;;;;;;16.77;66.92;100231.88;8337419;28;20132;-79
2022/08/09 03:57:20;;;;;;;8.77;2.47;;;;;;;16.71;67.47;100241.34;8359033;28;20045;-79
2022/08/09 04:01:21;;;;;;;10.15;2.65;;;;;;;16.68;67.27;100244.75;8336700;28;20536;-79
2022/08/09 04:05:23;;;;;;;4.35;2.30;;;;;;;16.63;67.63;100244.91;8341975;28;20040;-79
2022/08/09 04:09:24;;;;;;;3.72;2.38;;;;;;;16.60;68.95;100231.91;8340933;28;20496;-79
2022/08/09 04:13:25;;;;;;;4.38;1.88;;;;;;;16.56;69.04;100241.81;8354206;28;20052;-79
2022/08/09 04:17:26;;;;;;;3.33;2.17;;;;;;;16.56;69.20;100241.81;8339139;28;20056;-79
2022/08/09 04:21:27;;;;;;;9.23;2.50;;;;;;;16.51;69.18;100239.25;8344578;28;20051;-79
2022/08/09 04:25:28;;;;;;;6.97;2.30;;;;;;;16.51;69.42;100233.78;8339481;28;20049;-79
2022/08/09 04:29:30;;;;;;;5.43;2.20;;;;;;;16.54;69.76;100244.06;8348067;28;20620;-80
2022/08/09 04:33:31;;;;;;;4.18;2.00;;;;;;;16.57;69.75;100237.97;8348225;28;20111;-79
2022/08/09 04:37:32;;;;;;;4.13;2.42;;;;;;;16.61;69.99;100239.75;8359877;28;20577;-80
2022/08/09 04:41:33;;;;;;;4.50;2.17;;;;;;;16.66;70.10;100246.97;8355627;28;20037;-80
2022/08/09 04:45:34;;;;;;;4.57;2.30;;;;;;;16.67;70.62;100254.03;8356889;28;20107;-80
2022/08/09 04:49:36;;;;;;;5.85;2.10;;;;;;;16.73;70.91;100252.75;8358724;28;20045;-79
2022/08/09 04:53:38;;;;;;;3.05;2.10;;;;;;;16.77;71.40;100248.25;8359058;28;20044;-80
2022/08/09 04:57:39;;;;;;;2.90;2.33;;;;;;;16.80;71.89;100244.91;8359706;28;20137;-80
2022/08/09 05:01:40;;;;;;;6.95;2.47;;;;;;;16.84;71.82;100254.03;8356983;28;20413;-79
2022/08/09 05:05:40;;;;;;;5.72;2.20;;;;;;;16.88;72.22;100265.91;8356053;28;20140;-79
2022/08/09 05:09:41;;;;;;;5.03;2.40;;;;;;;16.94;72.85;100264.63;8358131;28;20053;-81
2022/08/09 05:13:42;;;;;;;5.80;2.15;;;;;;;16.97;73.04;100264.00;8356867;28;20606;-79
2022/08/09 05:17:43;;;;;;;4.88;2.53;;;;;;;17.00;73.29;100268.78;8302016;28;20041;-80
2022/08/09 05:21:44;;;;;;;5.90;2.60;;;;;;;17.03;73.04;100278.25;8354429;28;20128;-79
2022/08/09 05:25:45;;;;;;;3.35;2.38;;;;;;;17.05;73.12;100276.81;8305788;28;20052;-80
2022/08/09 05:29:46;;;;;;;3.92;2.38;;;;;;;17.06;73.14;100278.41;8345915;28;20560;-80
2022/08/09 05:33:48;;;;;;;5.97;2.42;;;;;;;17.09;73.45;100293.34;8345728;28;20048;-79
2022/08/09 05:37:49;;;;;;;3.80;2.35;;;;;;;17.12;73.23;100293.50;8350972;28;20045;-79
2022/08/09 05:41:50;;;;;;;6.82;2.50;;;;;;;17.11;73.57;100297.34;8361283;28;20091;-80
2022/08/09 05:45:51;;;;;;;5.18;2.85;;;;;;;17.11;73.85;100302.81;8357804;28;20049;-80
2022/08/09 05:49:54;;;;;;;10.60;3.15;;;;;;;17.09;74.18;100299.59;8357545;28;20075;-79
2022/08/09 05:53:54;;;;;;;5.72;3.13;;;;;;;17.07;74.50;100296.41;8357820;28;20045;-80
2022/08/09 05:57:55;;;;;;;7.10;3.13;;;;;;;17.10;74.62;100301.22;8306920;28;20108;-80
2022/08/09 06:01:56;;;;;;;7.38;3.22;;;;;;;17.09;74.75;100299.59;8332836;28;20053;-80
2022/08/09 06:05:57;;;;;;;7.80;3.10;;;;;;;17.05;74.48;100304.09;8351296;28;20152;-79
2022/08/09 06:09:58;;;;;;;5.55;3.47;;;;;;;17.01;74.34;100297.69;8355307;28;20309;-80
2022/08/09 06:13:59;;;;;;;7.38;3.80;;;;;;;16.99;74.16;100304.59;8337030;28;20049;-80
2022/08/09 06:18:00;;;;;;;7.75;3.42;;;;;;;17.02;73.64;100303.97;8313606;28;20183;-80
2022/08/09 06:22:01;;;;;;;7.70;3.58;;;;;;;17.07;72.83;100312.78;8365110;28;20106;-80
2022/08/09 06:26:02;;;;;;;5.00;3.35;;;;;;;17.07;72.71;100311.97;8362744;28;20045;-80
2022/08/09 06:30:03;;;;;;;7.50;3.95;;;;;;;17.12;72.49;100318.06;8347136;28;20045;-80
2022/08/09 06:34:05;;;;;;;7.25;3.75;;;;;;;17.15;72.45;100314.69;8345645;28;20064;-80
2022/08/09 06:38:06;;;;;;;8.35;3.80;;;;;;;17.26;72.42;100315.97;8361229;28;20111;-80
2022/08/09 06:42:07;;;;;;;6.07;3.50;;;;;;;17.35;72.44;100312.41;8354075;28;20055;-80
2022/08/09 06:46:08;;;;;;;10.73;3.95;;;;;;;17.37;72.28;100315.63;8360554;28;20055;-80
2022/08/09 06:50:09;;;;;;;7.80;4.10;;;;;;;17.39;72.43;100318.84;8341699;28;20041;-80
2022/08/09 06:54:11;;;;;;;5.88;3.85;;;;;;;17.39;72.64;100325.09;8350837;28;20077;-80
2022/08/09 06:58:12;;;;;;;12.57;4.15;;;;;;;17.44;73.00;100326.84;8363971;28;20045;-80
2022/08/09 07:02:13;;;;;;;9.13;4.25;;;;;;;17.51;73.34;100324.41;8298442;28;20084;-81
2022/08/09 07:06:14;;;;;;;6.50;4.10;;;;;;;17.65;73.50;100333.25;8343915;28;20053;-80
2022/08/09 07:10:15;;;;;;;6.85;3.90;;;;;;;17.75;73.32;100338.38;8336785;28;20061;-81
2022/08/09 07:14:19;;;;;;;9.38;4.10;;;;;;;17.86;72.79;100339.63;8343797;28;20029;-80
2022/08/09 07:18:20;;;;;;;7.22;3.70;;;;;;;17.91;72.71;100336.72;8340488;28;20045;-81
2022/08/09 07:22:22;;;;;;;6.38;3.90;;;;;;;17.95;72.78;100347.78;8288465;28;20069;-80
2022/08/09 07:26:23;;;;;;;10.98;3.92;;;;;;;18.02;72.22;100348.88;8291084;28;20074;-80
2022/08/09 07:30:24;;;;;;;6.07;3.80;;;;;;;18.07;72.02;100356.91;8272638;28;20045;-80
2022/08/09 07:34:26;;;;;;;9.35;4.03;;;;;;;18.11;70.99;100363.31;8292720;28;20058;-80
2022/08/09 07:38:27;;;;;;;6.70;3.33;;;;;;;18.10;68.81;100367.16;8293010;28;20061;-80
2022/08/09 07:42:28;;;;;;;8.45;3.80;;;;;;;18.09;68.63;100370.22;8292290;28;20065;-80
2022/08/09 07:46:29;;;;;;;9.32;4.50;;;;;;;18.07;68.22;100373.31;8282464;28;20057;-80
2022/08/09 07:50:30;;;;;;;11.43;4.50;;;;;;;18.10;68.24;100375.38;8276757;28;20046;-80
2022/08/09 07:54:31;;;;;;;13.27;4.40;;;;;;;18.18;68.17;100378.41;8351568;28;20492;-80
2022/08/09 07:58:32;;;;;;;11.88;5.20;;;;;;;18.26;68.78;100380.28;8352800;28;20477;-80
2022/08/09 08:02:32;;;;;;;12.35;4.30;;;;;;;18.38;68.52;100377.66;8347378;28;20180;-79
2022/08/09 08:06:33;;;;;;;8.18;4.32;;;;;;;18.46;68.59;100382.28;8352342;28;20054;-80
2022/08/09 08:10:35;;;;;;;9.98;3.97;;;;;;;18.53;68.00;100374.34;8351625;28;20063;-79
2022/08/09 08:14:37;;;;;;;12.50;4.25;;;;;;;18.54;67.77;100376.00;8352867;28;20041;-80
2022/08/09 08:18:38;;;;;;;8.93;4.18;;;;;;;18.63;67.47;100374.00;8318799;28;20049;-79
2022/08/09 08:22:39;;;;;;;9.60;4.00;;;;;;;18.70;67.82;100374.28;8333869;28;20057;-80
2022/08/09 08:26:40;;;;;;;10.60;4.43;;;;;;;18.64;66.81;100381.09;8351199;28;20056;-80
2022/08/09 08:30:43;;;;;;;11.45;4.15;;;;;;;18.76;66.48;100377.63;8347430;28;20049;-80
2022/08/09 08:34:44;;;;;;;19.85;4.22;;;;;;;18.84;66.27;100374.81;8294765;28;20500;-79
2022/08/09 08:38:45;;;;;;;7.72;3.70;;;;;;;18.96;65.57;100372.16;8300262;28;20136;-80
2022/08/09 08:42:46;;;;;;;10.35;3.97;;;;;;;19.06;65.46;100381.09;8326231;28;20056;-80
2022/08/09 08:46:47;;;;;;;6.03;3.38;;;;;;;19.22;64.87;100384.84;8361414;28;20058;-80
2022/08/09 08:50:49;;;;;;;5.55;3.50;;;;;;;19.32;64.71;100385.25;8361600;28;20051;-80
2022/08/09 08:54:51;;;;;;;8.48;3.60;;;;;;;19.51;64.67;100382.00;8339560;28;20071;-81
2022/08/09 08:58:52;;;;;;;8.75;4.35;;;;;;;19.65;64.34;100388.03;8343606;28;20548;-80
2022/08/09 09:02:57;;;;;;;9.55;3.20;;;;;;;19.71;64.01;100383.94;8309893;28;20540;-80
2022/08/09 09:07:01;;;;;;;15.05;3.85;;;;;;;19.87;64.41;100388.75;8348180;28;20064;-81
2022/08/09 09:11:04;;;;;;;13.25;3.85;;;;;;;20.05;63.59;100387.41;8356283;28;20489;-80
2022/08/09 09:15:05;;;;;;;8.50;3.53;;;;;;;20.18;63.19;100386.28;8343268;28;20160;-81
2022/08/09 09:19:10;;;;;;;6.40;3.40;;;;;;;20.38;62.84;100382.66;8366548;28;20057;-80
2022/08/09 09:23:10;;;;;;;7.88;3.63;;;;;;;20.56;62.19;100384.03;8320547;28;20060;-80
2022/08/09 09:27:24;;;;;;;6.78;3.33;;;;;;;20.62;62.13;100377.16;8303783;28;20424;-80
2022/08/09 09:31:26;;;;;;;6.70;2.95;;;;;;;20.73;62.15;100379.47;8338445;28;20091;-79
2022/08/09 09:35:28;;;;;;;6.47;3.28;;;;;;;20.87;62.12;100377.13;8353051;28;20045;-80
2022/08/09 09:39:29;;;;;;;5.40;2.85;;;;;;;21.01;61.98;100383.03;8335407;28;20052;-81
2022/08/09 09:43:31;;;;;;;4.95;2.58;;;;;;;21.08;61.14;100386.00;8367080;28;20040;-80
2022/08/09 09:47:32;;;;;;;4.78;3.10;;;;;;;21.20;60.64;100386.00;8366703;28;20077;-80
2022/08/09 09:51:34;;;;;;;8.57;2.60;;;;;;;21.20;60.13;100386.00;8366446;28;20072;-79
2022/08/09 09:56:09;;;;;;;5.97;2.60;;;;;;;21.36;59.23;100384.09;8345404;28;20049;-80
2022/08/09 10:00:23;;;;;;;6.22;2.90;;;;;;;21.60;58.82;100385.13;8360397;28;20071;-80
2022/08/09 10:04:24;;;;;;;9.52;2.63;;;;;;;21.58;59.17;100373.69;8301835;28;20056;-80
2022/08/09 10:08:25;;;;;;;3.97;2.10;;;;;;;21.97;58.33;100381.06;8358397;28;20075;-81
2022/08/09 10:12:26;;;;;;;4.93;2.35;;;;;;;22.40;56.56;100365.59;8347230;28;20045;-81
2022/08/09 10:16:37;;;;;;;4.72;2.00;;;;;;;22.80;55.16;100368.09;8344548;28;20068;-81
2022/08/09 10:20:38;;;;;;;6.43;2.60;;;;;;;22.96;53.10;100366.91;8360310;28;20049;-81
2022/08/09 10:24:40;;;;;;;5.97;2.50;;;;;;;22.98;53.81;100361.84;8342861;28;20048;-80
2022/08/09 10:28:47;;;;;;;6.18;2.67;;;;;;;22.87;52.46;100374.59;8318702;28;20083;-81
2022/08/09 10:32:50;;;;;;;6.68;2.80;;;;;;;22.65;52.64;100366.97;8349355;28;20045;-81
2022/08/09 10:36:55;;;;;;;5.40;2.50;;;;;;;22.67;53.51;100364.66;8335628;28;20049;-79
2022/08/09 10:40:57;;;;;;;6.57;2.50;;;;;;;22.95;52.13;100365.28;8348010;28;20045;-80
2022/08/09 10:45:03;;;;;;;3.08;2.17;;;;;;;23.09;50.76;100343.56;8360765;28;20041;-81
2022/08/09 10:49:16;;;;;;;5.57;2.45;;;;;;;23.32;51.29;100351.88;8338502;28;20052;-81
2022/08/09 10:53:55;;;;;;;3.88;2.20;;;;;;;23.44;50.16;100339.91;8365067;28;20033;-80
2022/08/09 10:57:56;;;;;;;;;;;;;;;23.56;48.41;100339.78;8328719;28;20503;-81
2022/08/09 11:02:00;;;;;;;3.97;2.00;;;;;;;23.70;49.34;100345.56;8314443;28;19960;-81
2022/08/09 11:06:14;;;;;;;5.05;1.83;;;;;;;24.02;47.66;100334.28;8345294;28;20048;-80
2022/08/09 11:10:16;;;;;;;4.85;1.98;;;;;;;24.23;46.15;100334.66;8357490;28;20060;-78
2022/08/09 11:14:37;;;;;;;6.95;1.65;;;;;;;24.34;46.24;100341.13;8363974;28;20049;-80
2022/08/09 11:18:42;;;;;;;3.58;1.63;;;;;;;24.50;45.53;100325.19;8363874;28;20044;-81
2022/08/09 11:22:43;;;;;;;9.52;1.70;;;;;;;24.50;43.83;100327.97;8364177;28;20075;-80
2022/08/09 11:26:47;;;;;;;2.20;1.60;;;;;;;24.55;44.77;100330.41;8353552;28;20052;-81
2022/08/09 11:30:48;;;;;;;7.40;2.15;;;;;;;24.69;43.08;100336.13;8362068;28;20112;-80
2022/08/09 11:34:51;;;;;;;5.80;1.63;;;;;;;24.76;43.26;100325.16;8327503;28;20112;-80
2022/08/09 11:39:00;;;;;;;6.30;1.95;;;;;;;24.90;43.59;100332.09;8342359;28;20128;-80
2022/08/09 11:43:01;;;;;;;5.55;1.92;;;;;;;25.00;43.75;100328.66;8309515;28;20551;-80
2022/08/09 11:47:02;;;;;;;6.30;2.40;;;;;;;25.11;44.33;100313.81;8337171;28;20047;-80
2022/08/09 11:51:03;;;;;;;5.70;2.20;;;;;;;24.94;44.68;100324.66;8295488;28;20413;-80
2022/08/09 11:55:29;;;;;;;4.70;2.13;;;;;;;24.98;44.37;100325.47;8349006;28;20057;-80
2022/08/09 11:59:30;;;;;;;4.80;2.10;;;;;;;24.66;43.90;100325.81;8351085;28;20136;-80
2022/08/09 12:03:32;;;;;;;6.10;1.90;;;;;;;24.36;44.59;100327.75;8314889;28;20041;-81
2022/08/09 12:07:32;;;;;;;6.15;2.58;;;;;;;24.75;43.92;100323.56;8348005;28;20044;-79
2022/08/09 12:11:34;;;;;;;5.38;2.65;;;;;;;25.16;43.22;100309.91;8349212;28;20134;-80
2022/08/09 12:15:35;;;;;;;10.55;2.38;;;;;;;25.41;43.09;100316.50;8336097;28;20046;-81
2022/08/09 12:19:37;;;;;;;8.75;2.20;;;;;;;25.43;42.73;100314.13;8361979;28;20056;-81
2022/08/09 12:23:43;;;;;;;3.70;2.28;;;;;;;25.48;42.50;100322.13;8361641;28;20056;-81
2022/08/09 12:27:44;;;;;;;5.35;2.17;;;;;;;25.42;42.78;100312.56;8347695;28;20443;-82
2022/08/09 12:31:48;;;;;;;6.45;2.35;;;;;;;25.64;41.85;100319.91;8361688;28;20099;-79
2022/08/09 12:36:04;;;;;;;7.13;2.30;;;;;;;26.04;41.75;100310.78;8343819;28;20049;-79
2022/08/09 12:40:10;;;;;;;6.75;2.10;;;;;;;26.54;41.79;100304.84;8345511;28;20057;-80
2022/08/09 12:44:14;;;;;;;10.30;2.20;;;;;;;26.77;41.36;100308.09;8331449;28;20053;-78
2022/08/09 12:48:16;;;;;;;6.97;2.08;;;;;;;26.77;40.68;100308.09;8361823;28;20099;-80
2022/08/09 12:52:17;;;;;;;3.53;1.88;;;;;;;26.19;41.46;100306.16;8317221;28;20049;-80
2022/08/09 12:56:19;;;;;;;4.65;1.80;;;;;;;25.66;42.30;100300.19;8314765;28;20045;-80
2022/08/09 13:00:28;;;;;;;6.10;2.25;;;;;;;25.30;42.65;100293.47;8321139;28;20045;-80
2022/08/09 13:04:29;;;;;;;;;;;;;;;25.04;42.24;100290.81;8305856;28;20061;-80
2022/08/09 13:08:31;;;;;;;4.55;2.17;;;;;;;24.98;43.12;100286.78;8361498;28;19920;-81
2022/08/09 13:12:32;;;;;;;11.57;2.20;;;;;;;25.09;43.07;100293.25;8357090;28;20049;-81
2022/08/09 13:16:42;;;;;;;4.55;2.22;;;;;;;24.95;43.37;100290.31;8347046;28;20524;-81
2022/08/09 13:20:43;;;;;;;6.57;2.05;;;;;;;25.14;42.98;100290.13;8359462;28;20531;-78
2022/08/09 13:25:05;;;;;;;7.25;2.08;;;;;;;25.42;42.29;100290.44;8357035;28;20060;-79
2022/08/09 13:29:20;;;;;;;7.60;2.30;;;;;;;25.60;42.03;100296.97;8346996;28;20076;-78
2022/08/09 13:33:23;;;;;;;2.95;1.88;;;;;;;25.71;41.45;100296.25;8360400;28;20057;-78
2022/08/09 13:37:23;;;;;;;9.18;1.80;;;;;;;27.01;38.70;100296.38;8346860;28;20060;-80
2022/08/09 13:41:27;;;;;;;6.25;1.83;;;;;;;28.65;36.36;100292.50;8313272;28;20106;-78
2022/08/09 13:45:28;;;;;;;8.90;2.20;;;;;;;29.75;34.86;100295.53;8352282;28;20168;-82
2022/08/09 13:49:29;;;;;;;9.65;1.88;;;;;;;30.82;33.23;100308.47;8341953;28;20045;-77
2022/08/09 13:53:30;;;;;;;5.35;2.20;;;;;;;31.48;31.97;100296.81;8299018;28;20053;-81
2022/08/09 13:57:34;;;;;;;7.55;2.22;;;;;;;32.14;30.49;100308.19;8332252;28;20037;-79
2022/08/09 14:01:34;;;;;;;7.30;1.90;;;;;;;32.81;30.54;100301.31;8342686;28;20072;-78
2022/08/09 14:05:36;;;;;;;3.58;1.77;;;;;;;33.14;29.79;100298.63;8366185;28;20083;-79
2022/08/09 14:09:43;;;;;;;7.15;2.00;;;;;;;33.70;28.79;100294.56;8366379;28;20045;-80
2022/08/09 14:13:45;;;;;;;3.60;1.90;;;;;;;34.33;28.48;100303.38;8365899;28;20053;-79
2022/08/09 14:17:45;;;;;;;5.22;1.90;;;;;;;34.78;27.71;100298.97;8366287;28;20037;-80
2022/08/09 14:21:47;;;;;;;4.47;1.63;;;;;;;35.01;26.73;100302.28;8356282;28;20053;-80
2022/08/09 14:25:50;;;;;;;3.03;1.85;;;;;;;35.11;25.93;100300.41;8361207;28;20080;-78
2022/08/09 14:29:51;;;;;;;5.47;1.90;;;;;;;34.45;26.56;100299.06;8348686;28;20056;-77
2022/08/09 14:33:52;;;;;;;3.97;1.85;;;;;;;34.06;27.21;100293.66;8343018;28;20573;-78
2022/08/09 14:37:53;;;;;;;4.30;2.00;;;;;;;34.36;27.61;100290.50;8360452;28;20047;-78
2022/08/09 14:41:54;;;;;;;6.63;4.03;;;;;;;34.41;27.55;100295.56;8353902;28;20057;-78
2022/08/09 14:45:55;;;;;;;7.63;4.60;;;;;;;32.77;30.01;100289.44;8351950;28;20511;-77
2022/08/09 14:49:56;;;;;;;3.22;1.80;;;;;;;32.23;30.68;100284.03;8362564;28;20052;-77
2022/08/09 14:53:58;;;;;;;3.17;1.75;;;;;;;34.62;28.71;100297.78;8363888;28;20394;-77
2022/08/09 14:58:01;;;;;;;4.57;1.80;;;;;;;36.25;25.78;100298.34;8309437;28;20037;-78
2022/08/09 15:02:02;;;;;;;6.78;2.40;;;;;;;36.79;24.16;100297.22;8350513;28;20037;-78
2022/08/09 15:06:03;;;;;;;5.93;1.60;;;;;;;36.94;23.69;100298.25;8352751;28;20587;-78
2022/08/09 15:10:07;;;;;;;6.93;2.08;;;;;;;37.39;23.97;100289.25;8333626;28;20045;-78
2022/08/09 15:14:08;;;;;;;4.95;1.83;;;;;;;37.70;22.01;100292.06;8336213;28;20320;-78
2022/08/09 15:18:09;;;;;;;3.92;1.70;;;;;;;37.42;22.95;100293.19;8357212;28;20495;-79
2022/08/09 15:22:10;;;;;;;4.28;1.80;;;;;;;36.90;22.72;100283.53;8343233;28;20187;-77
2022/08/09 15:26:11;;;;;;;3.65;1.80;;;;;;;34.52;25.83;100282.03;8348794;28;20478;-79
2022/08/09 15:30:12;;;;;;;3.88;1.80;;;;;;;32.71;28.52;100274.34;8350780;28;20049;-78
2022/08/09 15:34:17;;;;;;;6.72;1.80;;;;;;;31.16;30.43;100272.97;8347065;28;20057;-77
2022/08/09 15:38:17;;;;;;;6.93;2.00;;;;;;;29.99;31.95;100273.47;8336900;28;20072;-78
2022/08/09 15:42:19;;;;;;;9.35;2.30;;;;;;;29.22;32.25;100272.78;8353959;28;20103;-78
2022/08/09 15:46:21;;;;;;;5.55;1.90;;;;;;;28.61;33.86;100275.03;8351939;28;20037;-79
2022/08/09 15:50:22;;;;;;;5.03;2.08;;;;;;;28.12;33.77;100271.19;8337564;28;20042;-78
2022/08/09 15:54:23;;;;;;;4.18;1.92;;;;;;;27.58;35.05;100263.25;8347595;28;20142;-79
2022/08/09 15:58:24;;;;;;;6.15;1.90;;;;;;;27.08;35.52;100267.88;8339906;28;20542;-76
2022/08/09 16:02:25;;;;;;;3.72;1.90;;;;;;;26.90;36.28;100267.81;8339538;28;20136;-77
2022/08/09 16:06:26;;;;;;;7.90;2.20;;;;;;;26.67;36.38;100258.97;8337478;28;20072;-78
2022/08/09 16:10:27;;;;;;;3.25;1.67;;;;;;;26.52;35.92;100262.88;8343386;28;20064;-78
2022/08/09 16:14:28;;;;;;;5.82;2.28;;;;;;;26.22;37.27;100261.13;8351333;28;20044;-77
2022/08/09 16:18:30;;;;;;;7.57;1.88;;;;;;;25.85;37.99;100265.97;8343866;28;20053;-78
2022/08/09 16:22:31;;;;;;;2.83;1.58;;;;;;;25.59;38.62;100266.94;8344611;28;20061;-78
2022/08/09 16:26:33;;;;;;;6.82;2.13;;;;;;;25.30;39.55;100260.28;8356712;28;20439;-78
2022/08/09 16:30:34;;;;;;;4.03;2.20;;;;;;;25.05;40.97;100259.25;8305992;28;20056;-77
2022/08/09 16:34:35;;;;;;;12.77;1.90;;;;;;;24.74;42.99;100254.91;8355297;28;20099;-77
2022/08/09 16:38:37;;;;;;;3.35;1.95;;;;;;;24.45;44.46;100253.72;8352594;28;20057;-78
2022/08/09 16:42:38;;;;;;;4.38;2.05;;;;;;;24.20;46.13;100260.88;8345653;28;20416;-78
2022/08/09 16:46:40;;;;;;;3.90;2.15;;;;;;;23.93;46.66;100260.84;8341105;28;20051;-77
2022/08/09 16:50:41;;;;;;;5.97;2.22;;;;;;;23.70;47.61;100257.28;8350718;28;20064;-78
2022/08/09 16:54:42;;;;;;;4.22;2.10;;;;;;;23.47;49.34;100256.53;8347861;28;20045;-78
2022/08/09 16:58:43;;;;;;;4.68;1.95;;;;;;;23.27;50.31;100260.44;8334549;28;20111;-78
2022/08/09 17:02:44;;;;;;;6.20;2.13;;;;;;;23.09;51.12;100260.91;8353512;28;20041;-78
2022/08/09 17:06:45;;;;;;;4.15;2.05;;;;;;;22.98;51.78;100262.66;8307944;28;20041;-78
2022/08/09 17:10:47;;;;;;;5.20;2.17;;;;;;;22.83;52.65;100252.53;8355369;28;20049;-77
2022/08/09 17:14:48;;;;;;;8.88;2.60;;;;;;;22.69;53.62;100265.97;8354441;28;20045;-77
2022/08/09 17:18:49;;;;;;;8.13;2.47;;;;;;;22.57;54.17;100260.59;8340976;28;20048;-76
2022/08/09 17:22:49;;;;;;;5.40;2.33;;;;;;;22.44;55.02;100261.88;8350369;28;20045;-77
2022/08/09 17:26:51;;;;;;;7.13;3.60;;;;;;;22.36;55.82;100266.44;8360844;28;20056;-77
2022/08/09 17:30:51;;;;;;;12.90;4.30;;;;;;;22.27;56.42;100263.88;8352102;28;20398;-77
2022/08/09 17:34:53;;;;;;;8.65;4.50;;;;;;;22.14;57.17;100269.88;8346176;28;20037;-77
2022/08/09 17:38:53;;;;;;;7.57;4.10;;;;;;;22.02;58.17;100279.00;8363063;28;20484;-76
2022/08/09 17:42:55;;;;;;;5.22;3.20;;;;;;;21.84;58.91;100272.25;8346166;28;20057;-76
2022/08/09 17:46:56;;;;;;;7.53;3.17;;;;;;;21.68;59.59;100276.97;8356651;28;20041;-76
2022/08/09 17:50:57;;;;;;;7.88;3.28;;;;;;;21.53;60.21;100280.50;8355702;28;20061;-76
2022/08/09 17:54:58;;;;;;;8.52;3.10;;;;;;;21.40;60.21;100279.78;8350069;28;20052;-77
2022/08/09 17:59:00;;;;;;;8.25;3.95;;;;;;;21.20;60.64;100278.88;8352595;28;20056;-77
2022/08/09 18:03:01;;;;;;;9.52;3.88;;;;;;;21.01;61.04;100278.69;8356481;28;20455;-77
2022/08/09 18:07:02;;;;;;;12.73;4.95;;;;;;;20.83;61.27;100277.41;8361883;28;20053;-77
2022/08/09 18:11:03;;;;;;;13.70;7.30;;;;;;;20.69;61.34;100276.97;8347424;28;20061;-76
2022/08/09 18:15:05;;;;;;;17.90;9.32;;;;;;;20.52;62.00;100273.34;8352560;28;20053;-76
2022/08/09 18:19:06;;;;;;;39.05;18.60;;;;;;;20.36;61.97;100275.19;8362174;28;20077;-77
2022/08/09 18:23:07;;;;;;;17.13;8.50;;;;;;;20.19;61.95;100279.00;8365093;28;20053;-77
2022/08/09 18:27:08;;;;;;;5.75;3.10;;;;;;;20.06;61.77;100282.06;8310871;28;20072;-77
2022/08/09 18:31:10;;;;;;;7.68;2.47;;;;;;;19.92;61.62;100282.44;8349067;28;20053;-76
2022/08/09 18:35:11;;;;;;;5.70;2.47;;;;;;;19.83;61.56;100286.41;8340132;28;20045;-76
2022/08/09 18:39:12;;;;;;;5.60;2.60;;;;;;;19.73;61.12;100285.72;8358570;28;20053;-76
2022/08/09 18:43:13;;;;;;;10.68;3.60;;;;;;;19.66;60.96;100290.97;8365158;28;20504;-76
2022/08/09 18:47:14;;;;;;;8.77;4.10;;;;;;;19.57;60.34;100298.47;8364718;28;20341;-77